sensor_id;sensor_type;location;lat;lon;timestamp;P1;durP1;ratioP1;P2;durP2;ratioP2
15677;SDS011;7939;50.814;6.368;2023-10-09T00:00:12;5.97;;;3.58;;
15677;SDS011;7939;50.814;6.368;2023-10-09T00:03:12;7.43;;;3.75;;
15677;SDS011;7939;50.814;6.368;2023-10-09T00:05:38;6.90;;;3.85;;
15677;SDS011;7939;50.814;6.368;2023-10-09T00:08:11;6.95;;;4.10;;
15677;SDS011;7939;50.814;6.368;2023-10-09T00:10:41;6.90;;;3.72;;
15677;SDS011;7939;50.814;6.368;2023-10-09T00:13:14;8.93;;;4.43;;
15677;SDS011;7939;50.814;6.368;2023-10-09T00:15:42;7.22;;;4.43;;
15677;SDS011;7939;50.814;6.368;2023-10-09T00:18:09;6.80;;;4.55;;
15677;SDS011;7939;50.814;6.368;2023-10-09T00:20:38;8.13;;;4.35;;
15677;SDS011;7939;50.814;6.368;2023-10-09T00:23:08;7.43;;;4.00;;
15677;SDS011;7939;50.814;6.368;2023-10-09T00:25:39;6.40;;;3.83;;
15677;SDS011;7939;50.814;6.368;2023-10-09T00:28:12;6.03;;;3.65;;
15677;SDS011;7939;50.814;6.368;2023-10-09T00:30:40;5.95;;;4.03;;
15677;SDS011;7939;50.814;6.368;2023-10-09T00:33:07;8.15;;;4.25;;
15677;SDS011;7939;50.814;6.368;2023-10-09T00:35:36;9.55;;;4.32;;
15677;SDS011;7939;50.814;6.368;2023-10-09T00:38:08;6.63;;;4.03;;
15677;SDS011;7939;50.814;6.368;2023-10-09T00:40:45;6.00;;;3.97;;
15677;SDS011;7939;50.814;6.368;2023-10-09T00:43:15;7.05;;;3.80;;
15677;SDS011;7939;50.814;6.368;2023-10-09T00:45:44;6.82;;;4.20;;
15677;SDS011;7939;50.814;6.368;2023-10-09T00:48:16;7.80;;;4.50;;
15677;SDS011;7939;50.814;6.368;2023-10-09T00:50:49;5.80;;;3.72;;
15677;SDS011;7939;50.814;6.368;2023-10-09T00:53:20;6.47;;;3.95;;
15677;SDS011;7939;50.814;6.368;2023-10-09T00:55:56;5.88;;;3.85;;
15677;SDS011;7939;50.814;6.368;2023-10-09T00:58:28;7.03;;;3.90;;
15677;SDS011;7939;50.814;6.368;2023-10-09T01:00:56;7.30;;;3.80;;
15677;SDS011;7939;50.814;6.368;2023-10-09T01:03:24;9.05;;;3.72;;
15677;SDS011;7939;50.814;6.368;2023-10-09T01:05:53;6.07;;;4.13;;
15677;SDS011;7939;50.814;6.368;2023-10-09T01:08:25;6.90;;;3.75;;
15677;SDS011;7939;50.814;6.368;2023-10-09T01:10:56;6.00;;;3.92;;
15677;SDS011;7939;50.814;6.368;2023-10-09T01:13:33;5.07;;;3.53;;
15677;SDS011;7939;50.814;6.368;2023-10-09T01:16:06;7.03;;;4.13;;
15677;SDS011;7939;50.814;6.368;2023-10-09T01:18:40;6.25;;;3.75;;
15677;SDS011;7939;50.814;6.368;2023-10-09T01:21:08;7.93;;;3.60;;
15677;SDS011;7939;50.814;6.368;2023-10-09T01:23:39;8.23;;;4.93;;
15677;SDS011;7939;50.814;6.368;2023-10-09T01:26:23;8.77;;;4.90;;
15677;SDS011;7939;50.814;6.368;2023-10-09T01:28:50;8.00;;;4.05;;
15677;SDS011;7939;50.814;6.368;2023-10-09T01:31:23;9.05;;;4.68;;
15677;SDS011;7939;50.814;6.368;2023-10-09T01:33:51;6.35;;;4.57;;
15677;SDS011;7939;50.814;6.368;2023-10-09T01:36:18;5.63;;;4.05;;
15677;SDS011;7939;50.814;6.368;2023-10-09T01:38:58;9.07;;;4.32;;
15677;SDS011;7939;50.814;6.368;2023-10-09T01:41:26;8.20;;;4.32;;
15677;SDS011;7939;50.814;6.368;2023-10-09T01:43:53;4.82;;;3.78;;
15677;SDS011;7939;50.814;6.368;2023-10-09T01:46:26;7.18;;;4.93;;
15677;SDS011;7939;50.814;6.368;2023-10-09T01:48:52;6.07;;;4.35;;
15677;SDS011;7939;50.814;6.368;2023-10-09T01:51:19;7.85;;;4.38;;
15677;SDS011;7939;50.814;6.368;2023-10-09T01:53:46;6.63;;;3.92;;
15677;SDS011;7939;50.814;6.368;2023-10-09T01:56:21;7.80;;;4.28;;
15677;SDS011;7939;50.814;6.368;2023-10-09T01:58:47;5.18;;;3.92;;
15677;SDS011;7939;50.814;6.368;2023-10-09T02:01:15;8.38;;;4.32;;
15677;SDS011;7939;50.814;6.368;2023-10-09T02:03:42;8.00;;;3.92;;
15677;SDS011;7939;50.814;6.368;2023-10-09T02:06:10;7.43;;;4.43;;
15677;SDS011;7939;50.814;6.368;2023-10-09T02:08:52;6.28;;;4.18;;
15677;SDS011;7939;50.814;6.368;2023-10-09T02:11:21;7.05;;;4.13;;
15677;SDS011;7939;50.814;6.368;2023-10-09T02:14:02;7.60;;;4.10;;
15677;SDS011;7939;50.814;6.368;2023-10-09T02:16:41;7.90;;;4.57;;
15677;SDS011;7939;50.814;6.368;2023-10-09T02:19:08;9.18;;;4.93;;
15677;SDS011;7939;50.814;6.368;2023-10-09T02:21:55;9.07;;;4.22;;
15677;SDS011;7939;50.814;6.368;2023-10-09T02:24:24;5.75;;;3.72;;
15677;SDS011;7939;50.814;6.368;2023-10-09T02:27:16;7.45;;;4.07;;
15677;SDS011;7939;50.814;6.368;2023-10-09T02:30:05;7.82;;;4.78;;
15677;SDS011;7939;50.814;6.368;2023-10-09T02:32:43;5.85;;;4.32;;
15677;SDS011;7939;50.814;6.368;2023-10-09T02:35:14;8.60;;;4.65;;
15677;SDS011;7939;50.814;6.368;2023-10-09T02:37:53;9.18;;;4.82;;
15677;SDS011;7939;50.814;6.368;2023-10-09T02:40:20;5.55;;;4.05;;
15677;SDS011;7939;50.814;6.368;2023-10-09T02:42:54;9.38;;;4.70;;
15677;SDS011;7939;50.814;6.368;2023-10-09T02:45:20;5.82;;;4.00;;
15677;SDS011;7939;50.814;6.368;2023-10-09T02:47:54;7.75;;;4.13;;
15677;SDS011;7939;50.814;6.368;2023-10-09T02:50:21;7.18;;;4.30;;
15677;SDS011;7939;50.814;6.368;2023-10-09T02:52:53;6.57;;;4.43;;
15677;SDS011;7939;50.814;6.368;2023-10-09T02:55:25;8.88;;;4.75;;
15677;SDS011;7939;50.814;6.368;2023-10-09T02:57:54;10.60;;;4.38;;
15677;SDS011;7939;50.814;6.368;2023-10-09T03:00:31;5.85;;;4.10;;
15677;SDS011;7939;50.814;6.368;2023-10-09T03:03:01;9.25;;;4.80;;
15677;SDS011;7939;50.814;6.368;2023-10-09T03:05:31;12.35;;;5.28;;
15677;SDS011;7939;50.814;6.368;2023-10-09T03:07:58;8.43;;;4.75;;
15677;SDS011;7939;50.814;6.368;2023-10-09T03:10:25;6.85;;;4.22;;
15677;SDS011;7939;50.814;6.368;2023-10-09T03:12:52;7.35;;;4.13;;
15677;SDS011;7939;50.814;6.368;2023-10-09T03:15:20;6.72;;;4.47;;
15677;SDS011;7939;50.814;6.368;2023-10-09T03:17:47;11.10;;;4.85;;
15677;SDS011;7939;50.814;6.368;2023-10-09T03:20:14;8.50;;;4.53;;
15677;SDS011;7939;50.814;6.368;2023-10-09T03:22:43;6.63;;;4.57;;
15677;SDS011;7939;50.814;6.368;2023-10-09T03:25:11;7.43;;;4.40;;
15677;SDS011;7939;50.814;6.368;2023-10-09T03:27:39;7.78;;;4.85;;
15677;SDS011;7939;50.814;6.368;2023-10-09T03:30:10;7.07;;;4.55;;
15677;SDS011;7939;50.814;6.368;2023-10-09T03:32:46;7.05;;;4.40;;
15677;SDS011;7939;50.814;6.368;2023-10-09T03:35:16;6.95;;;4.35;;
15677;SDS011;7939;50.814;6.368;2023-10-09T03:37:49;7.68;;;5.03;;
15677;SDS011;7939;50.814;6.368;2023-10-09T03:40:18;8.27;;;4.82;;
15677;SDS011;7939;50.814;6.368;2023-10-09T03:42:45;7.18;;;4.53;;
15677;SDS011;7939;50.814;6.368;2023-10-09T03:45:12;6.60;;;4.40;;
15677;SDS011;7939;50.814;6.368;2023-10-09T03:47:51;7.75;;;4.68;;
15677;SDS011;7939;50.814;6.368;2023-10-09T03:50:27;7.22;;;4.65;;
15677;SDS011;7939;50.814;6.368;2023-10-09T03:53:01;10.75;;;5.20;;
15677;SDS011;7939;50.814;6.368;2023-10-09T03:55:31;8.02;;;4.75;;
15677;SDS011;7939;50.814;6.368;2023-10-09T03:57:58;6.85;;;4.60;;
15677;SDS011;7939;50.814;6.368;2023-10-09T04:00:27;8.48;;;4.22;;
15677;SDS011;7939;50.814;6.368;2023-10-09T04:02:56;9.48;;;4.57;;
15677;SDS011;7939;50.814;6.368;2023-10-09T04:05:24;6.50;;;4.35;;
15677;SDS011;7939;50.814;6.368;2023-10-09T04:07:51;6.22;;;4.22;;
15677;SDS011;7939;50.814;6.368;2023-10-09T04:10:19;6.57;;;4.07;;
15677;SDS011;7939;50.814;6.368;2023-10-09T04:13:18;8.32;;;4.45;;
15677;SDS011;7939;50.814;6.368;2023-10-09T04:15:49;8.50;;;4.63;;
15677;SDS011;7939;50.814;6.368;2023-10-09T04:18:20;9.63;;;5.00;;
15677;SDS011;7939;50.814;6.368;2023-10-09T04:20:58;10.10;;;5.45;;
15677;SDS011;7939;50.814;6.368;2023-10-09T04:23:44;9.15;;;4.53;;
15677;SDS011;7939;50.814;6.368;2023-10-09T04:26:47;7.90;;;4.75;;
15677;SDS011;7939;50.814;6.368;2023-10-09T04:29:21;7.72;;;4.32;;
15677;SDS011;7939;50.814;6.368;2023-10-09T04:31:51;6.72;;;4.57;;
15677;SDS011;7939;50.814;6.368;2023-10-09T04:34:21;9.18;;;4.70;;
15677;SDS011;7939;50.814;6.368;2023-10-09T04:36:48;6.32;;;4.25;;
15677;SDS011;7939;50.814;6.368;2023-10-09T04:39:16;8.40;;;4.55;;
15677;SDS011;7939;50.814;6.368;2023-10-09T04:41:57;6.63;;;4.22;;
15677;SDS011;7939;50.814;6.368;2023-10-09T04:44:39;7.93;;;5.22;;
15677;SDS011;7939;50.814;6.368;2023-10-09T04:47:12;8.40;;;4.60;;
15677;SDS011;7939;50.814;6.368;2023-10-09T04:49:45;10.80;;;6.43;;
15677;SDS011;7939;50.814;6.368;2023-10-09T04:52:26;11.68;;;5.30;;
15677;SDS011;7939;50.814;6.368;2023-10-09T04:55:08;9.52;;;4.60;;
15677;SDS011;7939;50.814;6.368;2023-10-09T04:57:44;6.68;;;4.53;;
15677;SDS011;7939;50.814;6.368;2023-10-09T05:00:25;9.55;;;4.95;;
15677;SDS011;7939;50.814;6.368;2023-10-09T05:03:12;6.60;;;4.15;;
15677;SDS011;7939;50.814;6.368;2023-10-09T05:05:51;7.47;;;4.70;;
15677;SDS011;7939;50.814;6.368;2023-10-09T05:08:25;8.07;;;4.65;;
15677;SDS011;7939;50.814;6.368;2023-10-09T05:10:55;7.97;;;4.90;;
15677;SDS011;7939;50.814;6.368;2023-10-09T05:13:31;7.60;;;4.63;;
15677;SDS011;7939;50.814;6.368;2023-10-09T05:16:09;7.70;;;4.43;;
15677;SDS011;7939;50.814;6.368;2023-10-09T05:18:43;7.95;;;4.70;;
15677;SDS011;7939;50.814;6.368;2023-10-09T05:21:22;10.57;;;4.70;;
15677;SDS011;7939;50.814;6.368;2023-10-09T05:24:10;6.97;;;4.47;;
15677;SDS011;7939;50.814;6.368;2023-10-09T05:26:45;8.68;;;5.00;;
15677;SDS011;7939;50.814;6.368;2023-10-09T05:29:17;9.15;;;5.07;;
15677;SDS011;7939;50.814;6.368;2023-10-09T05:31:59;7.78;;;4.75;;
15677;SDS011;7939;50.814;6.368;2023-10-09T05:34:30;8.68;;;4.90;;
15677;SDS011;7939;50.814;6.368;2023-10-09T05:37:00;7.45;;;4.63;;
15677;SDS011;7939;50.814;6.368;2023-10-09T05:39:43;10.73;;;5.55;;
15677;SDS011;7939;50.814;6.368;2023-10-09T05:42:23;7.72;;;4.55;;
15677;SDS011;7939;50.814;6.368;2023-10-09T05:44:54;10.57;;;4.65;;
15677;SDS011;7939;50.814;6.368;2023-10-09T05:47:35;8.40;;;4.75;;
15677;SDS011;7939;50.814;6.368;2023-10-09T05:50:13;9.13;;;4.57;;
15677;SDS011;7939;50.814;6.368;2023-10-09T05:52:58;7.53;;;4.60;;
15677;SDS011;7939;50.814;6.368;2023-10-09T05:55:35;10.25;;;4.65;;
15677;SDS011;7939;50.814;6.368;2023-10-09T05:58:33;10.05;;;4.38;;
15677;SDS011;7939;50.814;6.368;2023-10-09T06:01:39;9.50;;;4.60;;
15677;SDS011;7939;50.814;6.368;2023-10-09T06:04:24;8.85;;;4.78;;
15677;SDS011;7939;50.814;6.368;2023-10-09T06:07:11;10.70;;;4.72;;
15677;SDS011;7939;50.814;6.368;2023-10-09T06:09:40;10.85;;;5.05;;
15677;SDS011;7939;50.814;6.368;2023-10-09T06:12:23;8.10;;;4.70;;
15677;SDS011;7939;50.814;6.368;2023-10-09T06:15:14;8.50;;;4.35;;
15677;SDS011;7939;50.814;6.368;2023-10-09T06:18:15;11.68;;;4.93;;
15677;SDS011;7939;50.814;6.368;2023-10-09T06:20:59;8.00;;;4.80;;
15677;SDS011;7939;50.814;6.368;2023-10-09T06:23:35;9.27;;;4.50;;
15677;SDS011;7939;50.814;6.368;2023-10-09T06:26:23;12.30;;;4.65;;
15677;SDS011;7939;50.814;6.368;2023-10-09T06:28:50;8.80;;;4.35;;
15677;SDS011;7939;50.814;6.368;2023-10-09T06:31:38;7.43;;;4.18;;
15677;SDS011;7939;50.814;6.368;2023-10-09T06:34:23;8.68;;;4.50;;
15677;SDS011;7939;50.814;6.368;2023-10-09T06:36:58;8.30;;;4.10;;
15677;SDS011;7939;50.814;6.368;2023-10-09T06:39:30;7.20;;;4.18;;
15677;SDS011;7939;50.814;6.368;2023-10-09T06:42:16;7.40;;;4.90;;
15677;SDS011;7939;50.814;6.368;2023-10-09T06:45:02;8.32;;;4.40;;
15677;SDS011;7939;50.814;6.368;2023-10-09T06:47:31;7.82;;;3.75;;
15677;SDS011;7939;50.814;6.368;2023-10-09T06:50:06;7.55;;;4.65;;
15677;SDS011;7939;50.814;6.368;2023-10-09T06:52:50;9.70;;;4.63;;
15677;SDS011;7939;50.814;6.368;2023-10-09T06:55:23;6.63;;;4.65;;
15677;SDS011;7939;50.814;6.368;2023-10-09T06:58:00;8.52;;;4.88;;
15677;SDS011;7939;50.814;6.368;2023-10-09T07:00:26;9.25;;;4.57;;
15677;SDS011;7939;50.814;6.368;2023-10-09T07:03:07;7.30;;;4.78;;
15677;SDS011;7939;50.814;6.368;2023-10-09T07:05:37;7.47;;;4.63;;
15677;SDS011;7939;50.814;6.368;2023-10-09T07:08:23;6.78;;;4.07;;
15677;SDS011;7939;50.814;6.368;2023-10-09T07:11:02;9.63;;;4.38;;
15677;SDS011;7939;50.814;6.368;2023-10-09T07:13:47;9.38;;;4.68;;
15677;SDS011;7939;50.814;6.368;2023-10-09T07:16:21;6.32;;;4.47;;
15677;SDS011;7939;50.814;6.368;2023-10-09T07:18:54;7.93;;;4.50;;
15677;SDS011;7939;50.814;6.368;2023-10-09T07:21:34;7.13;;;3.80;;
15677;SDS011;7939;50.814;6.368;2023-10-09T07:24:04;9.80;;;4.22;;
15677;SDS011;7939;50.814;6.368;2023-10-09T07:26:39;8.45;;;4.70;;
15677;SDS011;7939;50.814;6.368;2023-10-09T07:29:13;6.75;;;4.45;;
15677;SDS011;7939;50.814;6.368;2023-10-09T07:31:47;8.15;;;4.63;;
15677;SDS011;7939;50.814;6.368;2023-10-09T07:34:22;8.52;;;4.40;;
15677;SDS011;7939;50.814;6.368;2023-10-09T07:37:18;9.15;;;4.53;;
15677;SDS011;7939;50.814;6.368;2023-10-09T07:39:48;8.73;;;4.90;;
15677;SDS011;7939;50.814;6.368;2023-10-09T07:42:22;8.93;;;5.03;;
15677;SDS011;7939;50.814;6.368;2023-10-09T07:45:11;6.25;;;4.00;;
15677;SDS011;7939;50.814;6.368;2023-10-09T07:47:59;8.93;;;4.93;;
15677;SDS011;7939;50.814;6.368;2023-10-09T07:50:34;14.10;;;5.03;;
15677;SDS011;7939;50.814;6.368;2023-10-09T07:53:06;7.30;;;4.65;;
15677;SDS011;7939;50.814;6.368;2023-10-09T07:55:43;12.20;;;5.35;;
15677;SDS011;7939;50.814;6.368;2023-10-09T07:58:19;6.60;;;4.60;;
15677;SDS011;7939;50.814;6.368;2023-10-09T08:00:51;9.30;;;4.78;;
15677;SDS011;7939;50.814;6.368;2023-10-09T08:03:33;8.40;;;4.82;;
15677;SDS011;7939;50.814;6.368;2023-10-09T08:06:00;9.52;;;5.15;;
15677;SDS011;7939;50.814;6.368;2023-10-09T08:08:53;8.68;;;4.35;;
15677;SDS011;7939;50.814;6.368;2023-10-09T08:11:36;8.48;;;4.95;;
15677;SDS011;7939;50.814;6.368;2023-10-09T08:14:21;11.32;;;4.97;;
15677;SDS011;7939;50.814;6.368;2023-10-09T08:17:09;10.07;;;5.53;;
15677;SDS011;7939;50.814;6.368;2023-10-09T08:19:41;10.77;;;5.18;;
15677;SDS011;7939;50.814;6.368;2023-10-09T08:22:26;10.20;;;5.32;;
15677;SDS011;7939;50.814;6.368;2023-10-09T08:25:15;9.88;;;5.38;;
15677;SDS011;7939;50.814;6.368;2023-10-09T08:27:58;9.48;;;5.70;;
15677;SDS011;7939;50.814;6.368;2023-10-09T08:30:44;11.77;;;5.85;;
15677;SDS011;7939;50.814;6.368;2023-10-09T08:33:29;8.52;;;5.85;;
15677;SDS011;7939;50.814;6.368;2023-10-09T08:36:09;10.23;;;5.00;;
15677;SDS011;7939;50.814;6.368;2023-10-09T08:38:40;9.18;;;5.45;;
15677;SDS011;7939;50.814;6.368;2023-10-09T08:41:08;8.20;;;5.45;;
15677;SDS011;7939;50.814;6.368;2023-10-09T08:43:47;9.40;;;4.78;;
15677;SDS011;7939;50.814;6.368;2023-10-09T08:46:17;8.00;;;5.07;;
15677;SDS011;7939;50.814;6.368;2023-10-09T08:48:53;9.55;;;5.15;;
15677;SDS011;7939;50.814;6.368;2023-10-09T08:51:21;11.02;;;4.97;;
15677;SDS011;7939;50.814;6.368;2023-10-09T08:53:50;9.20;;;4.95;;
15677;SDS011;7939;50.814;6.368;2023-10-09T08:56:18;11.60;;;6.40;;
15677;SDS011;7939;50.814;6.368;2023-10-09T08:58:49;8.10;;;5.55;;
15677;SDS011;7939;50.814;6.368;2023-10-09T09:01:17;10.05;;;4.63;;
15677;SDS011;7939;50.814;6.368;2023-10-09T09:03:47;7.63;;;4.45;;
15677;SDS011;7939;50.814;6.368;2023-10-09T09:06:17;10.00;;;4.97;;
15677;SDS011;7939;50.814;6.368;2023-10-09T09:08:44;9.50;;;5.05;;
15677;SDS011;7939;50.814;6.368;2023-10-09T09:11:12;13.63;;;4.75;;
15677;SDS011;7939;50.814;6.368;2023-10-09T09:13:40;8.15;;;5.55;;
15677;SDS011;7939;50.814;6.368;2023-10-09T09:16:14;6.25;;;4.70;;
15677;SDS011;7939;50.814;6.368;2023-10-09T09:18:52;8.27;;;5.43;;
15677;SDS011;7939;50.814;6.368;2023-10-09T09:21:27;6.00;;;4.22;;
15677;SDS011;7939;50.814;6.368;2023-10-09T09:23:55;9.85;;;5.18;;
15677;SDS011;7939;50.814;6.368;2023-10-09T09:26:33;9.00;;;4.72;;
15677;SDS011;7939;50.814;6.368;2023-10-09T09:29:03;10.40;;;5.30;;
15677;SDS011;7939;50.814;6.368;2023-10-09T09:31:31;10.93;;;4.63;;
15677;SDS011;7939;50.814;6.368;2023-10-09T09:34:03;9.30;;;4.82;;
15677;SDS011;7939;50.814;6.368;2023-10-09T09:36:40;6.93;;;4.65;;
15677;SDS011;7939;50.814;6.368;2023-10-09T09:39:19;8.50;;;4.78;;
15677;SDS011;7939;50.814;6.368;2023-10-09T09:41:53;8.00;;;4.75;;
15677;SDS011;7939;50.814;6.368;2023-10-09T09:44:22;7.88;;;3.90;;
15677;SDS011;7939;50.814;6.368;2023-10-09T09:46:52;10.05;;;4.72;;
15677;SDS011;7939;50.814;6.368;2023-10-09T09:49:20;7.93;;;4.97;;
15677;SDS011;7939;50.814;6.368;2023-10-09T09:51:50;6.50;;;3.97;;
15677;SDS011;7939;50.814;6.368;2023-10-09T09:54:16;7.40;;;4.00;;
15677;SDS011;7939;50.814;6.368;2023-10-09T09:56:47;5.35;;;3.45;;
15677;SDS011;7939;50.814;6.368;2023-10-09T09:59:17;7.13;;;4.07;;
15677;SDS011;7939;50.814;6.368;2023-10-09T10:01:47;7.45;;;4.43;;
15677;SDS011;7939;50.814;6.368;2023-10-09T10:04:22;8.45;;;4.38;;
15677;SDS011;7939;50.814;6.368;2023-10-09T10:06:53;8.23;;;3.97;;
15677;SDS011;7939;50.814;6.368;2023-10-09T10:09:34;6.78;;;3.20;;
15677;SDS011;7939;50.814;6.368;2023-10-09T10:12:04;7.43;;;3.60;;
15677;SDS011;7939;50.814;6.368;2023-10-09T10:17:22;7.43;;;3.60;;
15677;SDS011;7939;50.814;6.368;2023-10-09T10:19:58;7.85;;;3.47;;
15677;SDS011;7939;50.814;6.368;2023-10-09T10:22:48;8.40;;;3.08;;
15677;SDS011;7939;50.814;6.368;2023-10-09T10:25:31;5.88;;;3.60;;
15677;SDS011;7939;50.814;6.368;2023-10-09T10:28:16;8.73;;;3.72;;
15677;SDS011;7939;50.814;6.368;2023-10-09T10:31:04;5.07;;;3.38;;
15677;SDS011;7939;50.814;6.368;2023-10-09T10:36:32;9.70;;;3.45;;
15677;SDS011;7939;50.814;6.368;2023-10-09T10:39:01;5.97;;;3.47;;
15677;SDS011;7939;50.814;6.368;2023-10-09T10:41:34;8.45;;;3.53;;
15677;SDS011;7939;50.814;6.368;2023-10-09T10:44:16;4.47;;;3.28;;
15677;SDS011;7939;50.814;6.368;2023-10-09T10:47:10;5.18;;;3.60;;
15677;SDS011;7939;50.814;6.368;2023-10-09T10:49:57;9.15;;;3.65;;
15677;SDS011;7939;50.814;6.368;2023-10-09T10:52:36;6.28;;;3.35;;
15677;SDS011;7939;50.814;6.368;2023-10-09T10:55:09;5.82;;;3.70;;
15677;SDS011;7939;50.814;6.368;2023-10-09T10:57:44;7.53;;;3.65;;
15677;SDS011;7939;50.814;6.368;2023-10-09T11:00:26;9.48;;;4.03;;
15677;SDS011;7939;50.814;6.368;2023-10-09T11:03:16;5.78;;;3.22;;
15677;SDS011;7939;50.814;6.368;2023-10-09T11:05:45;5.20;;;3.45;;
15677;SDS011;7939;50.814;6.368;2023-10-09T11:08:16;4.75;;;3.00;;
15677;SDS011;7939;50.814;6.368;2023-10-09T11:10:49;6.15;;;2.92;;
15677;SDS011;7939;50.814;6.368;2023-10-09T11:13:21;8.70;;;3.28;;
15677;SDS011;7939;50.814;6.368;2023-10-09T11:16:00;6.72;;;3.47;;
15677;SDS011;7939;50.814;6.368;2023-10-09T11:18:41;6.70;;;3.45;;
15677;SDS011;7939;50.814;6.368;2023-10-09T11:21:13;8.80;;;3.50;;
15677;SDS011;7939;50.814;6.368;2023-10-09T11:23:56;5.00;;;3.08;;
15677;SDS011;7939;50.814;6.368;2023-10-09T11:26:45;6.40;;;2.95;;
15677;SDS011;7939;50.814;6.368;2023-10-09T11:29:19;6.72;;;3.67;;
15677;SDS011;7939;50.814;6.368;2023-10-09T11:31:57;11.25;;;3.85;;
15677;SDS011;7939;50.814;6.368;2023-10-09T11:34:25;7.82;;;3.20;;
15677;SDS011;7939;50.814;6.368;2023-10-09T11:36:57;6.45;;;3.60;;
15677;SDS011;7939;50.814;6.368;2023-10-09T11:39:26;5.68;;;3.97;;
15677;SDS011;7939;50.814;6.368;2023-10-09T11:42:01;5.68;;;3.17;;
15677;SDS011;7939;50.814;6.368;2023-10-09T11:44:40;11.57;;;3.70;;
15677;SDS011;7939;50.814;6.368;2023-10-09T11:47:10;6.90;;;3.38;;
15677;SDS011;7939;50.814;6.368;2023-10-09T11:49:50;8.55;;;3.97;;
15677;SDS011;7939;50.814;6.368;2023-10-09T11:52:41;6.53;;;3.40;;
15677;SDS011;7939;50.814;6.368;2023-10-09T11:55:34;8.95;;;3.78;;
15677;SDS011;7939;50.814;6.368;2023-10-09T11:58:03;7.18;;;4.03;;
15677;SDS011;7939;50.814;6.368;2023-10-09T12:00:32;7.78;;;3.40;;
15677;SDS011;7939;50.814;6.368;2023-10-09T12:03:10;6.35;;;3.08;;
15677;SDS011;7939;50.814;6.368;2023-10-09T12:05:38;6.05;;;3.50;;
15677;SDS011;7939;50.814;6.368;2023-10-09T12:08:09;9.27;;;3.97;;
15677;SDS011;7939;50.814;6.368;2023-10-09T12:10:35;4.70;;;3.20;;
15677;SDS011;7939;50.814;6.368;2023-10-09T12:13:05;9.35;;;3.72;;
15677;SDS011;7939;50.814;6.368;2023-10-09T12:15:32;5.40;;;3.40;;
15677;SDS011;7939;50.814;6.368;2023-10-09T12:18:04;6.13;;;3.63;;
15677;SDS011;7939;50.814;6.368;2023-10-09T12:20:34;7.28;;;3.58;;
15677;SDS011;7939;50.814;6.368;2023-10-09T12:23:01;6.05;;;3.50;;
15677;SDS011;7939;50.814;6.368;2023-10-09T12:25:31;6.13;;;3.67;;
15677;SDS011;7939;50.814;6.368;2023-10-09T12:27:58;7.93;;;3.95;;
15677;SDS011;7939;50.814;6.368;2023-10-09T12:30:27;10.30;;;3.75;;
15677;SDS011;7939;50.814;6.368;2023-10-09T12:32:54;6.30;;;3.63;;
15677;SDS011;7939;50.814;6.368;2023-10-09T12:35:22;8.88;;;3.97;;
15677;SDS011;7939;50.814;6.368;2023-10-09T12:37:50;7.13;;;3.35;;
15677;SDS011;7939;50.814;6.368;2023-10-09T12:40:20;7.47;;;4.13;;
15677;SDS011;7939;50.814;6.368;2023-10-09T12:42:50;7.75;;;4.00;;
15677;SDS011;7939;50.814;6.368;2023-10-09T12:45:20;9.48;;;4.00;;
15677;SDS011;7939;50.814;6.368;2023-10-09T12:47:53;6.35;;;3.45;;
15677;SDS011;7939;50.814;6.368;2023-10-09T12:50:24;7.25;;;3.67;;
15677;SDS011;7939;50.814;6.368;2023-10-09T12:52:54;6.50;;;3.72;;
15677;SDS011;7939;50.814;6.368;2023-10-09T12:55:21;5.72;;;3.83;;
15677;SDS011;7939;50.814;6.368;2023-10-09T12:57:57;6.10;;;3.35;;
15677;SDS011;7939;50.814;6.368;2023-10-09T13:00:31;5.75;;;3.95;;
15677;SDS011;7939;50.814;6.368;2023-10-09T13:03:00;7.38;;;3.80;;
15677;SDS011;7939;50.814;6.368;2023-10-09T13:05:27;7.40;;;3.67;;
15677;SDS011;7939;50.814;6.368;2023-10-09T13:07:53;9.68;;;4.70;;
15677;SDS011;7939;50.814;6.368;2023-10-09T13:10:21;6.80;;;3.25;;
15677;SDS011;7939;50.814;6.368;2023-10-09T13:12:49;6.10;;;3.85;;
15677;SDS011;7939;50.814;6.368;2023-10-09T13:15:20;6.72;;;3.63;;
15677;SDS011;7939;50.814;6.368;2023-10-09T13:17:47;6.32;;;3.47;;
15677;SDS011;7939;50.814;6.368;2023-10-09T13:20:15;6.15;;;3.70;;
15677;SDS011;7939;50.814;6.368;2023-10-09T13:22:42;7.07;;;3.88;;
15677;SDS011;7939;50.814;6.368;2023-10-09T13:25:11;6.40;;;3.72;;
15677;SDS011;7939;50.814;6.368;2023-10-09T13:27:42;7.70;;;4.05;;
15677;SDS011;7939;50.814;6.368;2023-10-09T13:30:16;5.53;;;3.38;;
15677;SDS011;7939;50.814;6.368;2023-10-09T13:32:48;11.65;;;3.53;;
15677;SDS011;7939;50.814;6.368;2023-10-09T13:35:17;10.73;;;4.28;;
15677;SDS011;7939;50.814;6.368;2023-10-09T13:37:44;7.72;;;3.63;;
15677;SDS011;7939;50.814;6.368;2023-10-09T13:40:19;6.07;;;3.65;;
15677;SDS011;7939;50.814;6.368;2023-10-09T13:42:52;5.68;;;3.55;;
15677;SDS011;7939;50.814;6.368;2023-10-09T13:45:24;6.72;;;3.40;;
15677;SDS011;7939;50.814;6.368;2023-10-09T13:47:53;5.57;;;3.08;;
15677;SDS011;7939;50.814;6.368;2023-10-09T13:50:22;6.75;;;3.60;;
15677;SDS011;7939;50.814;6.368;2023-10-09T13:52:54;9.80;;;4.38;;
15677;SDS011;7939;50.814;6.368;2023-10-09T13:55:21;9.32;;;4.15;;
15677;SDS011;7939;50.814;6.368;2023-10-09T13:57:49;7.78;;;4.50;;
15677;SDS011;7939;50.814;6.368;2023-10-09T14:00:15;6.57;;;4.10;;
15677;SDS011;7939;50.814;6.368;2023-10-09T14:02:57;9.82;;;3.63;;
15677;SDS011;7939;50.814;6.368;2023-10-09T14:05:28;9.00;;;3.88;;
15677;SDS011;7939;50.814;6.368;2023-10-09T14:07:58;7.13;;;3.22;;
15677;SDS011;7939;50.814;6.368;2023-10-09T14:10:29;9.45;;;3.28;;
15677;SDS011;7939;50.814;6.368;2023-10-09T14:12:56;6.70;;;3.60;;
15677;SDS011;7939;50.814;6.368;2023-10-09T14:15:23;7.18;;;4.10;;
15677;SDS011;7939;50.814;6.368;2023-10-09T14:17:49;8.32;;;3.30;;
15677;SDS011;7939;50.814;6.368;2023-10-09T14:20:21;7.05;;;3.55;;
15677;SDS011;7939;50.814;6.368;2023-10-09T14:22:58;9.15;;;3.78;;
15677;SDS011;7939;50.814;6.368;2023-10-09T14:25:31;6.95;;;3.75;;
15677;SDS011;7939;50.814;6.368;2023-10-09T14:27:58;7.43;;;3.92;;
15677;SDS011;7939;50.814;6.368;2023-10-09T14:30:25;9.20;;;3.58;;
15677;SDS011;7939;50.814;6.368;2023-10-09T14:32:58;7.65;;;4.28;;
15677;SDS011;7939;50.814;6.368;2023-10-09T14:35:27;10.85;;;4.95;;
15677;SDS011;7939;50.814;6.368;2023-10-09T14:37:55;6.97;;;3.83;;
15677;SDS011;7939;50.814;6.368;2023-10-09T14:40:23;7.40;;;3.83;;
15677;SDS011;7939;50.814;6.368;2023-10-09T14:42:56;6.07;;;3.47;;
15677;SDS011;7939;50.814;6.368;2023-10-09T14:45:24;7.15;;;3.38;;
15677;SDS011;7939;50.814;6.368;2023-10-09T14:47:51;7.35;;;3.65;;
15677;SDS011;7939;50.814;6.368;2023-10-09T14:50:19;6.75;;;3.50;;
15677;SDS011;7939;50.814;6.368;2023-10-09T14:52:47;14.43;;;5.38;;
15677;SDS011;7939;50.814;6.368;2023-10-09T14:55:16;7.13;;;3.85;;
15677;SDS011;7939;50.814;6.368;2023-10-09T14:57:48;8.18;;;4.25;;
15677;SDS011;7939;50.814;6.368;2023-10-09T15:00:15;8.75;;;4.15;;
15677;SDS011;7939;50.814;6.368;2023-10-09T15:02:48;8.40;;;3.83;;
15677;SDS011;7939;50.814;6.368;2023-10-09T15:05:16;8.98;;;3.60;;
15677;SDS011;7939;50.814;6.368;2023-10-09T15:07:42;6.65;;;3.78;;
15677;SDS011;7939;50.814;6.368;2023-10-09T15:10:10;7.30;;;3.85;;
15677;SDS011;7939;50.814;6.368;2023-10-09T15:12:40;7.22;;;3.83;;
15677;SDS011;7939;50.814;6.368;2023-10-09T15:15:10;7.32;;;4.25;;
15677;SDS011;7939;50.814;6.368;2023-10-09T15:17:39;5.97;;;3.83;;
15677;SDS011;7939;50.814;6.368;2023-10-09T15:20:09;6.97;;;3.55;;
15677;SDS011;7939;50.814;6.368;2023-10-09T15:22:39;7.95;;;3.90;;
15677;SDS011;7939;50.814;6.368;2023-10-09T15:25:06;6.65;;;3.85;;
15677;SDS011;7939;50.814;6.368;2023-10-09T15:27:33;10.43;;;3.78;;
15677;SDS011;7939;50.814;6.368;2023-10-09T15:30:05;5.47;;;3.58;;
15677;SDS011;7939;50.814;6.368;2023-10-09T15:32:34;9.68;;;4.13;;
15677;SDS011;7939;50.814;6.368;2023-10-09T15:35:01;9.02;;;4.38;;
15677;SDS011;7939;50.814;6.368;2023-10-09T15:37:28;5.88;;;4.50;;
15677;SDS011;7939;50.814;6.368;2023-10-09T15:39:55;9.90;;;4.53;;
15677;SDS011;7939;50.814;6.368;2023-10-09T15:42:22;7.10;;;4.78;;
15677;SDS011;7939;50.814;6.368;2023-10-09T15:44:49;7.68;;;3.75;;